createdAt,value
2018-02-01T00:00:26.475Z,995.92
2018-02-01T00:01:35.691Z,995.91
2018-02-01T00:02:44.380Z,995.93
2018-02-01T00:03:53.327Z,995.9
2018-02-01T00:05:02.323Z,995.89
2018-02-01T00:06:11.007Z,995.89
2018-02-01T00:07:19.690Z,995.89
2018-02-01T00:08:28.641Z,995.87
2018-02-01T00:09:37.589Z,995.95
2018-02-01T00:10:46.804Z,995.93
2018-02-01T00:11:56.330Z,995.89
2018-02-01T00:13:05.014Z,995.9
2018-02-01T00:14:13.698Z,995.91
2018-02-01T00:15:22.648Z,995.96
2018-02-01T00:16:31.591Z,995.94
2018-02-01T00:17:40.583Z,995.95
2018-02-01T00:18:49.266Z,995.94
2018-02-01T00:19:57.948Z,995.97
2018-02-01T00:21:07.167Z,995.95
2018-02-01T00:22:16.116Z,995.91
2018-02-01T00:23:25.065Z,995.91
2018-02-01T00:24:34.280Z,995.88
2018-02-01T00:25:43.230Z,995.89
2018-02-01T00:26:52.173Z,995.89
2018-02-01T00:28:01.126Z,995.85
2018-02-01T00:29:10.074Z,995.9
2018-02-01T00:30:19.282Z,995.86
2018-02-01T00:31:27.962Z,995.85
2018-02-01T00:32:37.174Z,995.86
2018-02-01T00:33:45.855Z,995.85
2018-02-01T00:34:54.802Z,995.83
2018-02-01T00:36:04.012Z,995.81
2018-02-01T00:37:12.694Z,995.81
2018-02-01T00:38:21.678Z,995.82
2018-02-01T00:39:30.362Z,995.81
2018-02-01T00:40:39.307Z,995.82
2018-02-01T00:41:48.255Z,995.78
2018-02-01T00:42:56.942Z,995.77
2018-02-01T00:44:05.622Z,995.78
2018-02-01T00:45:14.570Z,995.77
2018-02-01T00:46:23.788Z,995.75
2018-02-01T00:47:32.996Z,995.75
2018-02-01T00:48:42.211Z,995.71
2018-02-01T00:49:51.420Z,995.71
2018-02-01T00:51:00.904Z,995.69
2018-02-01T00:52:09.589Z,995.71
2018-02-01T00:53:18.808Z,995.68
2018-02-01T00:54:27.752Z,995.69
2018-02-01T00:55:36.698Z,995.66
2018-02-01T00:56:45.378Z,995.66
2018-02-01T00:57:54.327Z,995.7
2018-02-01T00:59:03.279Z,995.72
2018-02-01T01:00:12.764Z,995.68
2018-02-01T01:01:21.978Z,995.68
2018-02-01T01:02:30.927Z,995.67
2018-02-01T01:03:39.874Z,995.62
2018-02-01T01:04:48.814Z,995.62
2018-02-01T01:05:57.758Z,995.66
2018-02-01T01:07:06.977Z,995.71
2018-02-01T01:08:15.925Z,995.68
2018-02-01T01:09:24.869Z,995.69
2018-02-01T01:10:33.814Z,995.65
2018-02-01T01:11:42.759Z,995.66
2018-02-01T01:12:51.705Z,995.63
2018-02-01T01:14:01.184Z,995.6
2018-02-01T01:15:10.133Z,995.6
2018-02-01T01:16:19.347Z,995.58
2018-02-01T01:17:28.031Z,995.61
2018-02-01T01:18:36.979Z,995.59
2018-02-01T01:19:45.660Z,995.63
2018-02-01T01:20:54.876Z,995.56
2018-02-01T01:22:03.821Z,995.58
2018-02-01T01:23:12.507Z,995.52
2018-02-01T01:24:21.720Z,995.49
2018-02-01T01:25:30.404Z,995.5
2018-02-01T01:26:39.085Z,995.43
2018-02-01T01:27:48.030Z,995.47
2018-02-01T01:28:56.979Z,995.44
2018-02-01T01:30:05.664Z,995.43
2018-02-01T01:31:14.613Z,995.37
2018-02-01T01:32:23.554Z,995.35
2018-02-01T01:33:32.237Z,995.43
2018-02-01T01:34:41.458Z,995.43
2018-02-01T01:35:50.138Z,995.37
2018-02-01T01:36:59.618Z,995.35
2018-02-01T01:38:08.299Z,995.36
2018-02-01T01:39:16.983Z,995.33
2018-02-01T01:40:26.195Z,995.34
2018-02-01T01:41:35.141Z,995.31
2018-02-01T01:42:43.823Z,995.35
2018-02-01T01:43:52.767Z,995.38
2018-02-01T01:45:01.448Z,995.4
2018-02-01T01:46:10.666Z,995.39
2018-02-01T01:47:19.611Z,995.4
2018-02-01T01:48:28.297Z,995.38
2018-02-01T01:49:37.246Z,995.37
2018-02-01T01:50:46.193Z,995.38
2018-02-01T01:51:55.405Z,995.35
2018-02-01T01:53:04.089Z,995.4
2018-02-01T01:54:12.771Z,995.36
2018-02-01T01:55:21.719Z,995.38
2018-02-01T01:56:30.941Z,995.35
2018-02-01T01:57:40.421Z,995.34
2018-02-01T01:58:49.366Z,995.39
2018-02-01T01:59:58.576Z,995.37
2018-02-01T02:01:07.525Z,995.39
2018-02-01T02:02:16.208Z,995.45
2018-02-01T02:03:25.159Z,995.4
2018-02-01T02:04:34.108Z,995.42
2018-02-01T02:05:43.062Z,995.45
2018-02-01T02:06:51.744Z,995.44
2018-02-01T02:08:00.954Z,995.41
2018-02-01T02:09:09.900Z,995.39
2018-02-01T02:10:18.580Z,995.4
2018-02-01T02:11:27.791Z,995.41
2018-02-01T02:12:36.476Z,995.36
2018-02-01T02:13:45.424Z,995.35
2018-02-01T02:14:54.375Z,995.34
2018-02-01T02:16:03.328Z,995.32
2018-02-01T02:17:12.275Z,995.34
2018-02-01T02:18:21.221Z,995.34
2018-02-01T02:19:30.437Z,995.29
2018-02-01T02:20:39.382Z,995.35
2018-02-01T02:21:48.064Z,995.29
2018-02-01T02:22:57.008Z,995.35
2018-02-01T02:24:05.692Z,995.28
2018-02-01T02:25:14.373Z,995.27
2018-02-01T02:26:23.325Z,995.24
2018-02-01T02:27:32.533Z,995.29
2018-02-01T02:28:41.479Z,995.24
2018-02-01T02:29:50.430Z,995.28
2018-02-01T02:30:59.112Z,995.28
2018-02-01T02:32:08.344Z,995.24
2018-02-01T02:33:17.561Z,995.24
2018-02-01T02:34:26.508Z,995.27
2018-02-01T02:35:35.726Z,995.25
2018-02-01T02:36:44.408Z,995.32
2018-02-01T02:37:53.089Z,995.29
2018-02-01T02:39:02.574Z,995.26
2018-02-01T02:40:11.524Z,995.25
2018-02-01T02:41:20.207Z,995.21
2018-02-01T02:42:29.431Z,995.19
2018-02-01T02:43:38.375Z,995.18
2018-02-01T02:44:47.597Z,995.22
2018-02-01T02:45:56.547Z,995.24
2018-02-01T02:47:05.500Z,995.25
2018-02-01T02:48:14.447Z,995.22
2018-02-01T02:49:23.133Z,995.23
2018-02-01T02:50:31.823Z,995.25
2018-02-01T02:51:40.768Z,995.26
2018-02-01T02:52:49.713Z,995.25
2018-02-01T02:53:58.944Z,995.24
2018-02-01T02:55:07.630Z,995.29
2018-02-01T02:56:16.842Z,995.28
2018-02-01T02:57:26.326Z,995.29
2018-02-01T02:58:35.010Z,995.3
2018-02-01T02:59:44.230Z,995.32
2018-02-01T03:00:53.443Z,995.24
2018-02-01T03:02:02.396Z,995.26
2018-02-01T03:03:11.341Z,995.25
2018-02-01T03:04:20.289Z,995.26
2018-02-01T03:05:29.239Z,995.25
2018-02-01T03:06:38.198Z,995.24
2018-02-01T03:07:46.901Z,995.21
2018-02-01T03:08:55.602Z,995.26
2018-02-01T03:10:04.572Z,995.17
2018-02-01T03:11:13.811Z,995.21
2018-02-01T03:12:23.321Z,995.21
2018-02-01T03:13:32.571Z,995.23
2018-02-01T03:14:41.540Z,995.2
2018-02-01T03:15:50.522Z,995.17
2018-02-01T03:16:59.224Z,995.23
2018-02-01T03:18:07.930Z,995.18
2018-02-01T03:19:16.634Z,995.24
2018-02-01T03:20:25.603Z,995.26
2018-02-01T03:21:34.577Z,995.23
2018-02-01T03:22:43.546Z,995.2
2018-02-01T03:23:52.250Z,995.27
2018-02-01T03:25:01.224Z,995.24
2018-02-01T03:26:10.734Z,995.3
2018-02-01T03:27:19.438Z,995.26
2018-02-01T03:28:28.405Z,995.26
2018-02-01T03:29:37.696Z,995.28
2018-02-01T03:30:46.406Z,995.3
2018-02-01T03:31:55.652Z,995.3
2018-02-01T03:33:04.620Z,995.33
2018-02-01T03:34:13.324Z,995.3
2018-02-01T03:35:22.825Z,995.27
2018-02-01T03:36:31.795Z,995.29
2018-02-01T03:37:41.038Z,995.3
2018-02-01T03:38:50.011Z,995.34
2018-02-01T03:39:58.978Z,995.32
2018-02-01T03:41:07.950Z,995.34
2018-02-01T03:42:16.652Z,995.38
2018-02-01T03:43:26.164Z,995.39
2018-02-01T03:44:35.140Z,995.36
2018-02-01T03:45:44.378Z,995.4
2018-02-01T03:46:53.346Z,995.42
2018-02-01T03:48:02.052Z,995.36
2018-02-01T03:49:10.752Z,995.34
2018-02-01T03:50:19.721Z,995.31
2018-02-01T03:51:28.428Z,995.29
2018-02-01T03:52:37.401Z,995.33
2018-02-01T03:53:46.106Z,995.3
2018-02-01T03:54:55.620Z,995.26
2018-02-01T03:56:04.857Z,995.26
2018-02-01T03:57:14.360Z,995.25
2018-02-01T03:58:23.067Z,995.27
2018-02-01T03:59:31.768Z,995.24
2018-02-01T04:00:41.066Z,995.33
2018-02-01T04:01:49.771Z,995.3
2018-02-01T04:02:58.735Z,995.3
2018-02-01T04:04:08.512Z,995.27
2018-02-01T04:05:18.013Z,995.31
2018-02-01T04:06:26.984Z,995.34
2018-02-01T04:07:36.232Z,995.3
2018-02-01T04:08:45.458Z,995.34
2018-02-01T04:09:54.163Z,995.38
2018-02-01T04:11:03.185Z,995.34
2018-02-01T04:12:12.161Z,995.36
2018-02-01T04:13:21.138Z,995.39
2018-02-01T04:14:29.843Z,995.41
2018-02-01T04:15:38.817Z,995.37
2018-02-01T04:16:47.788Z,995.42
2018-02-01T04:17:56.756Z,995.31
2018-02-01T04:19:05.991Z,995.27
2018-02-01T04:20:14.968Z,995.2
2018-02-01T04:21:23.935Z,995.28
2018-02-01T04:22:32.907Z,995.25
2018-02-01T04:23:42.144Z,995.25
2018-02-01T04:24:50.848Z,995.26
2018-02-01T04:26:00.090Z,995.31
2018-02-01T04:27:09.597Z,995.27
2018-02-01T04:28:18.567Z,995.26
2018-02-01T04:29:27.536Z,995.3
2018-02-01T04:30:36.776Z,995.23
2018-02-01T04:31:46.019Z,995.28
2018-02-01T04:32:55.524Z,995.26
2018-02-01T04:34:04.284Z,995.26
2018-02-01T04:35:14.003Z,995.22
2018-02-01T04:36:22.976Z,995.22
2018-02-01T04:37:32.211Z,995.3
2018-02-01T04:38:40.913Z,995.23
2018-02-01T04:39:49.616Z,995.29
2018-02-01T04:40:58.585Z,995.25
2018-02-01T04:42:07.826Z,995.2
2018-02-01T04:43:17.060Z,995.21
2018-02-01T04:44:26.295Z,995.2
2018-02-01T04:45:35.003Z,995.16
2018-02-01T04:46:44.237Z,995.15
2018-02-01T04:47:53.207Z,995.13
2018-02-01T04:49:02.176Z,995.15
2018-02-01T04:50:11.155Z,995.13
2018-02-01T04:51:19.861Z,995.09
2018-02-01T04:52:28.829Z,995.1
2018-02-01T04:53:37.531Z,995.07
2018-02-01T04:54:46.771Z,995.12
2018-02-01T04:55:55.478Z,995.05
2018-02-01T04:57:04.181Z,995.05
2018-02-01T04:58:13.149Z,995.13
2018-02-01T04:59:22.392Z,995.18
2018-02-01T05:00:31.095Z,995.12
2018-02-01T05:01:39.801Z,995.14
2018-02-01T05:02:48.774Z,995.14
2018-02-01T05:03:57.743Z,995.12
2018-02-01T05:05:06.713Z,995.19
2018-02-01T05:06:15.417Z,995.12
2018-02-01T05:07:24.120Z,995.23
2018-02-01T05:08:33.091Z,995.25
2018-02-01T05:09:42.326Z,995.34
2018-02-01T05:10:51.033Z,995.23
2018-02-01T05:12:00.002Z,995.24
2018-02-01T05:13:08.710Z,995.23
2018-02-01T05:14:17.677Z,995.19
2018-02-01T05:15:26.924Z,995.22
2018-02-01T05:16:36.430Z,995.22
2018-02-01T05:17:45.672Z,995.21
2018-02-01T05:18:54.374Z,995.2
2018-02-01T05:20:03.074Z,995.23
2018-02-01T05:21:11.778Z,995.23
2018-02-01T05:22:20.478Z,995.2
2018-02-01T05:23:29.448Z,995.2
2018-02-01T05:24:38.154Z,995.16
2018-02-01T05:25:47.130Z,995.13
2018-02-01T05:26:56.373Z,995.16
2018-02-01T05:28:05.071Z,995.06
2018-02-01T05:29:13.773Z,995.12
2018-02-01T05:30:22.746Z,995.14
2018-02-01T05:31:32.249Z,995.1
2018-02-01T05:32:40.952Z,995.11
2018-02-01T05:33:50.193Z,995.1
2018-02-01T05:34:59.431Z,995.13
2018-02-01T05:36:08.400Z,995.14
2018-02-01T05:37:17.374Z,995.13
2018-02-01T05:38:26.614Z,995.16
2018-02-01T05:39:35.316Z,995.14
2018-02-01T05:40:44.284Z,995.16
2018-02-01T05:41:53.252Z,995.17
2018-02-01T05:43:02.224Z,995.16
2018-02-01T05:44:11.464Z,995.15
2018-02-01T05:45:20.434Z,995.16
2018-02-01T05:46:29.404Z,995.19
2018-02-01T05:47:38.642Z,995.07
2018-02-01T05:48:47.612Z,995.11
2018-02-01T05:49:57.118Z,995.08
2018-02-01T05:51:05.821Z,995.02
2018-02-01T05:52:14.788Z,995.05
2018-02-01T05:53:24.297Z,995
2018-02-01T05:54:33.271Z,995.06
2018-02-01T05:55:41.973Z,995.06
2018-02-01T05:56:50.946Z,995.08
2018-02-01T05:57:59.919Z,995.04
2018-02-01T05:59:08.888Z,995.09
2018-02-01T06:00:17.857Z,995.07
2018-02-01T06:01:26.561Z,995.09
2018-02-01T06:02:35.532Z,995.07
2018-02-01T06:03:44.771Z,995.09
2018-02-01T06:04:53.473Z,995.12
2018-02-01T06:06:02.985Z,995.11
2018-02-01T06:07:11.688Z,995.09
2018-02-01T06:08:21.197Z,995.12
2018-02-01T06:09:30.438Z,995.13
2018-02-01T06:10:39.704Z,995.17
2018-02-01T06:11:48.936Z,995.17
2018-02-01T06:12:58.176Z,995.18
2018-02-01T06:14:07.146Z,995.19
2018-02-01T06:15:15.848Z,995.25
2018-02-01T06:16:24.817Z,995.25
2018-02-01T06:17:33.789Z,995.25
2018-02-01T06:18:42.500Z,995.24
2018-02-01T06:19:51.196Z,995.21
2018-02-01T06:21:00.701Z,995.22
2018-02-01T06:22:09.668Z,995.22
2018-02-01T06:23:18.638Z,995.26
2018-02-01T06:24:27.611Z,995.22
2018-02-01T06:25:36.312Z,995.28
2018-02-01T06:26:45.812Z,995.27
2018-02-01T06:27:54.788Z,995.28
2018-02-01T06:29:03.758Z,995.27
2018-02-01T06:30:13.002Z,995.26
2018-02-01T06:31:21.972Z,995.3
2018-02-01T06:32:31.212Z,995.28
2018-02-01T06:33:40.454Z,995.32
2018-02-01T06:34:49.954Z,995.28
2018-02-01T06:35:58.969Z,995.34
2018-02-01T06:37:08.210Z,995.3
2018-02-01T06:38:17.452Z,995.3
2018-02-01T06:39:26.422Z,995.26
2018-02-01T06:40:35.124Z,995.24
2018-02-01T06:41:44.096Z,995.21
2018-02-01T06:42:52.800Z,995.24
2018-02-01T06:44:01.802Z,995.21
2018-02-01T06:45:10.475Z,995.23
2018-02-01T06:46:19.177Z,995.2
2018-02-01T06:47:28.412Z,995.21
2018-02-01T06:48:37.119Z,995.19
2018-02-01T06:49:46.077Z,995.21
2018-02-01T06:50:55.584Z,995.18
2018-02-01T06:52:04.559Z,995.18
2018-02-01T06:53:13.260Z,995.17
2018-02-01T06:54:22.496Z,995.16
2018-02-01T06:55:31.464Z,995.1
2018-02-01T06:56:40.168Z,995.18
2018-02-01T06:57:49.405Z,995.17
2018-02-01T06:58:58.638Z,995.15
2018-02-01T07:00:08.419Z,995.15
2018-02-01T07:01:17.964Z,995.19
2018-02-01T07:02:26.989Z,995.22
2018-02-01T07:03:35.951Z,995.26
2018-02-01T07:04:44.922Z,995.27
2018-02-01T07:05:53.893Z,995.3
2018-02-01T07:07:03.146Z,995.3
2018-02-01T07:08:12.111Z,995.37
2018-02-01T07:09:21.622Z,995.33
2018-02-01T07:10:30.326Z,995.36
2018-02-01T07:11:39.361Z,995.31
2018-02-01T07:12:48.299Z,995.34
2018-02-01T07:13:58.073Z,995.3
2018-02-01T07:15:07.048Z,995.32
2018-02-01T07:16:16.021Z,995.32
2018-02-01T07:17:24.996Z,995.34
2018-02-01T07:18:33.700Z,995.3
2018-02-01T07:19:42.938Z,995.28
2018-02-01T07:20:52.188Z,995.28
2018-02-01T07:22:00.891Z,995.28
2018-02-01T07:23:09.897Z,995.39
2018-02-01T07:24:19.131Z,995.33
2018-02-01T07:25:27.837Z,995.34
2018-02-01T07:26:37.343Z,995.36
2018-02-01T07:27:46.049Z,995.34
2018-02-01T07:28:55.018Z,995.39
2018-02-01T07:30:03.723Z,995.42
2018-02-01T07:31:12.959Z,995.39
2018-02-01T07:32:21.664Z,995.4
2018-02-01T07:33:31.177Z,995.42
2018-02-01T07:34:40.416Z,995.43
2018-02-01T07:35:49.388Z,995.47
2018-02-01T07:36:58.365Z,995.48
2018-02-01T07:38:07.609Z,995.46
2018-02-01T07:39:16.314Z,995.43
2018-02-01T07:40:25.551Z,995.48
2018-02-01T07:41:34.791Z,995.44
2018-02-01T07:42:43.762Z,995.45
2018-02-01T07:43:52.733Z,995.47
2018-02-01T07:45:01.438Z,995.49
2018-02-01T07:46:11.256Z,995.46
2018-02-01T07:47:19.960Z,995.49
2018-02-01T07:48:28.932Z,995.5
2018-02-01T07:49:38.435Z,995.55
2018-02-01T07:50:47.938Z,995.61
2018-02-01T07:51:57.173Z,995.62
2018-02-01T07:53:06.419Z,995.56
2018-02-01T07:54:15.121Z,995.63
2018-02-01T07:55:24.092Z,995.59
2018-02-01T07:56:32.797Z,995.64
2018-02-01T07:57:42.302Z,995.63
2018-02-01T07:58:51.008Z,995.69
2018-02-01T07:59:59.984Z,995.67
2018-02-01T08:01:09.221Z,995.72
2018-02-01T08:02:18.728Z,995.74
2018-02-01T08:03:27.704Z,995.76
2018-02-01T08:04:36.974Z,995.79
2018-02-01T08:05:45.645Z,995.72
2018-02-01T08:06:54.888Z,995.77
2018-02-01T08:08:03.854Z,995.76
2018-02-01T08:09:12.555Z,995.78
2018-02-01T08:10:21.794Z,995.76
2018-02-01T08:11:31.045Z,995.76
2018-02-01T08:12:40.013Z,995.79
2018-02-01T08:13:49.256Z,995.76
2018-02-01T08:14:58.225Z,995.71
2018-02-01T08:16:06.929Z,995.72
2018-02-01T08:17:15.634Z,995.7
2018-02-01T08:18:24.872Z,995.75
2018-02-01T08:19:33.846Z,995.76
2018-02-01T08:20:42.550Z,995.72
2018-02-01T08:21:51.254Z,995.69
2018-02-01T08:22:59.955Z,995.65
2018-02-01T08:24:08.659Z,995.71
2018-02-01T08:25:17.895Z,995.68
2018-02-01T08:26:27.136Z,995.66
2018-02-01T08:27:36.105Z,995.63
2018-02-01T08:28:45.083Z,995.62
2018-02-01T08:29:53.789Z,995.63
2018-02-01T08:31:02.755Z,995.68
2018-02-01T08:32:12.527Z,995.63
2018-02-01T08:33:21.765Z,995.63
2018-02-01T08:34:30.739Z,995.65
2018-02-01T08:35:39.709Z,995.6
2018-02-01T08:36:48.977Z,995.67
2018-02-01T08:37:58.494Z,995.63
2018-02-01T08:39:07.467Z,995.63
2018-02-01T08:40:16.435Z,995.66
2018-02-01T08:41:25.407Z,995.61
2018-02-01T08:42:34.371Z,995.64
2018-02-01T08:43:43.616Z,995.62
2018-02-01T08:44:52.583Z,995.64
2018-02-01T08:46:01.553Z,995.64
2018-02-01T08:47:10.518Z,995.69
2018-02-01T08:48:19.226Z,995.68
2018-02-01T08:49:28.465Z,995.71
2018-02-01T08:50:37.433Z,995.72
2018-02-01T08:51:46.411Z,995.73
2018-02-01T08:52:55.115Z,995.72
2018-02-01T08:54:04.082Z,995.71
2018-02-01T08:55:13.096Z,995.78
2018-02-01T08:56:22.637Z,995.79
2018-02-01T08:57:31.611Z,995.77
2018-02-01T08:58:40.581Z,995.78
2018-02-01T08:59:49.283Z,995.77
2018-02-01T09:00:58.251Z,995.68
2018-02-01T09:02:07.223Z,995.66
2018-02-01T09:03:16.473Z,995.7
2018-02-01T09:04:25.445Z,995.68
2018-02-01T09:05:34.147Z,995.64
2018-02-01T09:06:43.117Z,995.61
2018-02-01T09:07:52.097Z,995.65
2018-02-01T09:09:01.066Z,995.64
2018-02-01T09:10:09.765Z,995.65
2018-02-01T09:11:18.738Z,995.65
2018-02-01T09:12:27.979Z,995.66
2018-02-01T09:13:36.685Z,995.6
2018-02-01T09:14:45.662Z,995.63
2018-02-01T09:15:54.631Z,995.59
2018-02-01T09:17:03.866Z,995.61
2018-02-01T09:18:12.837Z,995.61
2018-02-01T09:19:21.545Z,995.63
2018-02-01T09:20:31.325Z,995.64
2018-02-01T09:21:40.298Z,995.62
2018-02-01T09:22:49.005Z,995.66
2018-02-01T09:23:58.243Z,995.6
2018-02-01T09:25:07.213Z,995.65
2018-02-01T09:26:16.722Z,995.64
2018-02-01T09:27:25.697Z,995.67
2018-02-01T09:28:34.399Z,995.62
2018-02-01T09:29:43.637Z,995.69
2018-02-01T09:30:52.877Z,995.71
2018-02-01T09:32:01.847Z,995.65
2018-02-01T09:33:10.824Z,995.68
2018-02-01T09:34:19.801Z,995.65
2018-02-01T09:35:28.776Z,995.62
2018-02-01T09:36:37.480Z,995.67
2018-02-01T09:37:46.585Z,995.62
2018-02-01T09:38:55.586Z,995.74
2018-02-01T09:40:04.563Z,995.72
2018-02-01T09:41:13.538Z,995.72
2018-02-01T09:42:22.245Z,995.7
2018-02-01T09:43:30.949Z,995.67
2018-02-01T09:44:39.928Z,995.74
2018-02-01T09:45:48.905Z,995.71
2018-02-01T09:46:58.150Z,995.67
2018-02-01T09:48:07.123Z,995.73
2018-02-01T09:49:16.094Z,995.68
2018-02-01T09:50:25.061Z,995.78
2018-02-01T09:51:33.770Z,995.74
2018-02-01T09:52:43.273Z,995.8
2018-02-01T09:53:52.241Z,995.81
2018-02-01T09:55:01.210Z,995.93
2018-02-01T09:56:10.464Z,995.95
2018-02-01T09:57:19.701Z,995.97
2018-02-01T09:58:28.403Z,995.97
2018-02-01T09:59:37.105Z,995.96
2018-02-01T10:00:45.811Z,995.99
2018-02-01T10:01:54.783Z,995.99
2018-02-01T10:03:03.492Z,996
2018-02-01T10:04:12.736Z,996.04
2018-02-01T10:05:21.441Z,996.01
2018-02-01T10:06:30.411Z,996.03
2018-02-01T10:07:39.117Z,996.07
2018-02-01T10:08:48.351Z,996.06
2018-02-01T10:09:57.602Z,996.02
2018-02-01T10:11:06.842Z,996.07
2018-02-01T10:12:16.340Z,996.1
2018-02-01T10:13:25.042Z,996.11
2018-02-01T10:14:33.742Z,996.07
2018-02-01T10:15:42.716Z,996.08
2018-02-01T10:16:51.419Z,996.08
2018-02-01T10:18:00.132Z,996.07
2018-02-01T10:19:09.359Z,996.14
2018-02-01T10:20:18.324Z,996.15
2018-02-01T10:21:28.107Z,996.19
2018-02-01T10:22:37.075Z,996.12
2018-02-01T10:23:45.782Z,996.17
2018-02-01T10:24:54.751Z,996.17
2018-02-01T10:26:03.994Z,996.16
2018-02-01T10:27:13.232Z,996.16
2018-02-01T10:28:22.202Z,996.17
2018-02-01T10:29:31.711Z,996.19
2018-02-01T10:30:40.684Z,996.17
2018-02-01T10:31:49.926Z,996.19
2018-02-01T10:32:59.431Z,996.19
2018-02-01T10:34:08.675Z,996.21
2018-02-01T10:35:17.646Z,996.21
2018-02-01T10:36:26.617Z,996.26
2018-02-01T10:37:35.592Z,996.22
2018-02-01T10:38:44.565Z,996.22
2018-02-01T10:39:53.537Z,996.18
2018-02-01T10:41:02.516Z,996.18
2018-02-01T10:42:11.222Z,996.27
2018-02-01T10:43:20.462Z,996.26
2018-02-01T10:44:29.702Z,996.21
2018-02-01T10:45:38.409Z,996.24
2018-02-01T10:46:47.653Z,996.16
2018-02-01T10:47:56.890Z,996.17
2018-02-01T10:49:06.139Z,996.22
2018-02-01T10:50:15.372Z,996.19
2018-02-01T10:51:24.345Z,996.17
2018-02-01T10:52:33.316Z,996.19
2018-02-01T10:53:42.020Z,996.2
2018-02-01T10:54:51.527Z,996.19
2018-02-01T10:56:00.767Z,996.17
2018-02-01T10:57:09.735Z,996.16
2018-02-01T10:58:18.973Z,996.16
2018-02-01T10:59:27.944Z,996.2
2018-02-01T11:00:36.919Z,996.22
2018-02-01T11:01:46.156Z,996.24
2018-02-01T11:02:55.130Z,996.27
2018-02-01T11:04:04.360Z,996.26
2018-02-01T11:05:13.061Z,996.25
2018-02-01T11:06:22.035Z,996.19
2018-02-01T11:07:30.737Z,996.22
2018-02-01T11:08:40.022Z,996.19
2018-02-01T11:09:48.680Z,996.24
2018-02-01T11:10:57.656Z,996.23
2018-02-01T11:12:06.364Z,996.23
2018-02-01T11:13:15.068Z,996.23
2018-02-01T11:14:25.418Z,996.26
2018-02-01T11:15:34.659Z,996.23
2018-02-01T11:16:44.435Z,996.25
2018-02-01T11:17:53.412Z,996.22
2018-02-01T11:19:02.698Z,996.21
2018-02-01T11:20:11.954Z,996.22
2018-02-01T11:21:20.658Z,996.13
2018-02-01T11:22:29.904Z,996.2
2018-02-01T11:23:38.610Z,996.17
2018-02-01T11:24:48.129Z,996.16
2018-02-01T11:25:57.643Z,996.14
2018-02-01T11:27:07.425Z,996.13
2018-02-01T11:28:16.401Z,996.1
2018-02-01T11:29:25.372Z,996.12
2018-02-01T11:30:34.078Z,996.11
2018-02-01T11:31:43.053Z,996.08
2018-02-01T11:32:52.024Z,996.04
2018-02-01T11:34:01.273Z,996.03
2018-02-01T11:35:10.783Z,996.06
2018-02-01T11:36:19.489Z,996.05
2018-02-01T11:37:28.458Z,996.05
2018-02-01T11:38:37.431Z,996.02
2018-02-01T11:39:46.673Z,996.06
2018-02-01T11:40:55.645Z,996.05
2018-02-01T11:42:04.352Z,996.03
2018-02-01T11:43:13.595Z,996.04
2018-02-01T11:44:22.299Z,996.03
2018-02-01T11:45:31.541Z,996
2018-02-01T11:46:40.251Z,996
2018-02-01T11:47:49.225Z,996.03
2018-02-01T11:48:58.471Z,996.02
2018-02-01T11:50:08.243Z,996.05
2018-02-01T11:51:16.946Z,996.08
2018-02-01T11:52:25.648Z,996.06
2018-02-01T11:53:34.618Z,996.08
2018-02-01T11:54:44.390Z,996.04
2018-02-01T11:55:53.628Z,996.06
2018-02-01T11:57:02.872Z,996
2018-02-01T11:58:11.841Z,996.03
2018-02-01T11:59:21.081Z,996.03
2018-02-01T12:00:30.583Z,996.05
2018-02-01T12:01:39.837Z,996.02
2018-02-01T12:02:48.806Z,996.02
2018-02-01T12:03:58.044Z,996
2018-02-01T12:05:07.285Z,995.95
2018-02-01T12:06:16.526Z,995.98
2018-02-01T12:07:25.232Z,996.06
2018-02-01T12:08:34.199Z,996.05
2018-02-01T12:09:42.906Z,996.04
2018-02-01T12:10:52.143Z,996.05
2018-02-01T12:12:01.384Z,996.02
2018-02-01T12:13:10.087Z,995.98
2018-02-01T12:14:19.325Z,995.95
2018-02-01T12:15:28.296Z,995.97
2018-02-01T12:16:37.263Z,995.98
2018-02-01T12:17:46.504Z,995.96
2018-02-01T12:18:55.208Z,995.9
2018-02-01T12:20:04.445Z,995.9
2018-02-01T12:21:13.417Z,995.97
2018-02-01T12:22:22.387Z,995.93
2018-02-01T12:23:31.361Z,995.95
2018-02-01T12:24:40.869Z,995.95
2018-02-01T12:25:49.844Z,996
2018-02-01T12:26:58.817Z,995.94
2018-02-01T12:28:08.054Z,995.88
2018-02-01T12:29:17.291Z,995.9
2018-02-01T12:30:26.259Z,995.82
2018-02-01T12:31:35.763Z,995.86
2018-02-01T12:32:44.467Z,995.82
2018-02-01T12:33:53.172Z,995.88
2018-02-01T12:35:02.147Z,995.87
2018-02-01T12:36:11.120Z,995.9
2018-02-01T12:37:19.822Z,995.98
2018-02-01T12:38:28.795Z,995.94
2018-02-01T12:39:37.765Z,995.91
2018-02-01T12:40:46.735Z,995.94
2018-02-01T12:41:56.237Z,995.95
2018-02-01T12:43:04.937Z,995.92
2018-02-01T12:44:14.181Z,995.92
2018-02-01T12:45:22.893Z,995.98
2018-02-01T12:46:32.172Z,995.95
2018-02-01T12:47:41.408Z,995.94
2018-02-01T12:48:50.110Z,995.97
2018-02-01T12:49:58.815Z,996.02
2018-02-01T12:51:07.782Z,996.06
2018-02-01T12:52:16.753Z,995.98
2018-02-01T12:53:25.761Z,995.99
2018-02-01T12:54:35.026Z,996.02
2018-02-01T12:55:44.798Z,996.04
2018-02-01T12:56:53.768Z,996.01
2018-02-01T12:58:02.738Z,996.07
2018-02-01T12:59:11.443Z,996.07
2018-02-01T13:00:20.417Z,996.05
2018-02-01T13:01:29.391Z,996.01
2018-02-01T13:02:38.094Z,996.02
2018-02-01T13:03:47.064Z,996.03
2018-02-01T13:04:55.765Z,995.99
2018-02-01T13:06:05.030Z,996.04
2018-02-01T13:07:14.009Z,996
2018-02-01T13:08:23.244Z,996.03
2018-02-01T13:09:32.215Z,996.03
2018-02-01T13:10:41.186Z,995.98
2018-02-01T13:11:50.419Z,995.96
2018-02-01T13:12:59.389Z,996.05
2018-02-01T13:14:08.628Z,996
2018-02-01T13:15:17.599Z,996.01
2018-02-01T13:16:26.572Z,996.04
2018-02-01T13:17:35.274Z,996.06
2018-02-01T13:18:43.975Z,996.05
2018-02-01T13:19:52.675Z,996.05
2018-02-01T13:21:01.380Z,996.08
2018-02-01T13:22:10.082Z,996.05
2018-02-01T13:23:19.321Z,996.01
2018-02-01T13:24:28.031Z,996.03
2018-02-01T13:25:37.271Z,996.03
2018-02-01T13:26:46.240Z,996.02
2018-02-01T13:27:56.009Z,996.07
2018-02-01T13:29:05.249Z,996.03
2018-02-01T13:30:14.488Z,996
2018-02-01T13:31:23.190Z,996.01
2018-02-01T13:32:32.161Z,995.99
2018-02-01T13:33:41.132Z,996.03
2018-02-01T13:34:49.831Z,995.99
2018-02-01T13:35:58.799Z,996.04
2018-02-01T13:37:07.771Z,995.98
2018-02-01T13:38:16.739Z,996.01
2018-02-01T13:39:25.709Z,995.96
2018-02-01T13:40:34.951Z,995.99
2018-02-01T13:41:43.922Z,995.97
2018-02-01T13:42:52.630Z,995.99
2018-02-01T13:44:01.612Z,995.98
2018-02-01T13:45:10.584Z,995.95
2018-02-01T13:46:19.821Z,995.97
2018-02-01T13:47:29.361Z,995.93
2018-02-01T13:48:38.602Z,995.94
2018-02-01T13:49:47.844Z,995.96
2018-02-01T13:50:57.087Z,995.95
2018-02-01T13:52:05.787Z,995.93
2018-02-01T13:53:14.763Z,995.99
2018-02-01T13:54:23.732Z,995.95
2018-02-01T13:55:32.440Z,995.94
2018-02-01T13:56:41.730Z,995.93
2018-02-01T13:57:50.966Z,995.9
2018-02-01T13:58:59.939Z,995.91
2018-02-01T14:00:08.910Z,995.9
2018-02-01T14:01:17.612Z,995.89
2018-02-01T14:02:26.594Z,995.88
2018-02-01T14:03:35.300Z,995.84
2018-02-01T14:04:44.271Z,995.9
2018-02-01T14:05:52.975Z,995.87
2018-02-01T14:07:01.681Z,995.93
2018-02-01T14:08:10.656Z,995.95
2018-02-01T14:09:19.361Z,995.93
2018-02-01T14:10:28.332Z,995.96
2018-02-01T14:11:37.571Z,995.95
2018-02-01T14:12:46.545Z,995.94
2018-02-01T14:13:55.246Z,995.94
2018-02-01T14:15:04.216Z,995.97
2018-02-01T14:16:13.188Z,995.98
2018-02-01T14:17:22.434Z,996.02
2018-02-01T14:18:31.403Z,995.95
2018-02-01T14:19:40.636Z,995.98
2018-02-01T14:20:49.611Z,995.99
2018-02-01T14:21:58.577Z,995.94
2018-02-01T14:23:07.817Z,995.89
2018-02-01T14:24:17.053Z,995.88